Tallahassee, FL

8:21 AM EDT on May 24, 2017 (GMT -0400)
Hartsfield Elementary School WeatherSTEM | | Change Station
Active Advisory: Tornado Watch

Elev 203 ft 30.43 °N, 84.26 °W | Updated 4 minutes ago

Mostly Cloudy
Mostly Cloudy
73.2 °F
Feels Like 71 °F
N
1.0
Wind Variable Wind from SE

Today
High -- | Low -- °F
--% Chance of Precip.
Yesterday
High -- | Low -- °F
Precip. -- in
Pressure 29.65 in
Visibility 10.0 miles
Clouds Mostly Cloudy 4400 ft
Mostly Cloudy 6000 ft
Heat Index 71 °F
Dew Point 71 °F
Humidity 91%
Rainfall 0.00 in
Snow Depth Not available.
6:37 AM 8:30 PM
Waning Crescent, 3% visible
METAR KTLH 241153Z 16004KT 10SM BKN044 BKN060 23/22 A2965 RMK AO2 LTG DSNT SW SLP040 70015 T02330222 10233 20222 56015
Pressure 29.65 in
Visibility 10.0 miles
Clouds Mostly Cloudy 4400 ft
Mostly Cloudy 6000 ft
Heat Index 71 °F
Dew Point 71 °F
Humidity 91%
Rainfall 0.00 in
Snow Depth Not available.
6:37 AM 8:30 PM
Waning Crescent, 3% visible
METAR KTLH 241153Z 16004KT 10SM BKN044 BKN060 23/22 A2965 RMK AO2 LTG DSNT SW SLP040 70015 T02330222 10233 20222 56015

Get Your Daily Forecast Email!

Thanks for signing up!

Be on the lookout for a verification email in your inbox.

You'll start receiving severe weather alerts in your inbox..

×

10-Day Weather Forecast

Almanac

Astronomy

May. 24, 2017 Rise Set
Actual Time
Civil Twilight
Nautical Twilight
Astronomical Twilight
Moon
Length of Visible Light
Length of Day
Tomorrow will be .
, % of the Moon is Illuminated

Today's Extremes

State Highs State Lows

Community

WunderPhotos

Category 6

Welcome to Category 6. This is the collective home for Weather Underground's featured writeups by Dr. Jeff Masters (right), Bob Henson (left), Chris Burt, and other regular contributors.

Nearby

Air Quality

  Air Quality AQ Index Pollutant
Not available.

Snow Depth

Station Depth Elevation

Earthquake Activity

City Distance Mag. Time & Date
Minimum magnitude displayed is 2.5.

Coastal Water Temperatures

Place Temperature

Stations

Nearby Weather Stations

Station Location Temp. Windchill Dew Point Humidity Wind Precip. Elev Updated Type
                   

Watches & Warnings

Tornado Watch
Issued: 8:03 AM EDT May. 24, 2017 – National Weather Service

Tornado Watch 261 remains in effect until 300 PM EDT for the
following locations


FL
. Florida counties included are

Alachua Baker Bay
Bradford Calhoun Citrus
Clay Columbia Dixie
Duval Flagler Franklin
Gadsden Gilchrist Gulf
Hamilton Jackson Jefferson
Lafayette Lake Leon
Levy Liberty Madison
Marion Nassau Putnam
St. Johns Sumter Suwannee
Taylor Union Volusia
Wakulla